Nearby METAR Reports

 

KMTN - Baltimore/Martin, Maryland, USA
Distance from station: SSE 8mi, 13km
Updated: Sun, 21-Dec-2014 1:50pm EST
Clear
Clear
 Wind from W
Wind: W 6 mph , 9 km/h
Temperature: 43°F , 6°C
Wind Chill: 39°F , 4°C
Dew Point: 28°F , -2°C
Humidity: 57%
Barometer: 30.31 inHg , 1026.4 hPa
Clouds: Clear
Visibility: 10 miles , 16 km
2014/12/21 18:50 KMTN 211850Z 27005KT 10SM SKC 06/M02 A3031
KDMH - Baltimore/Dwntwn, Maryland, USA
Distance from station: SW 12mi, 19km
Updated: Sun, 21-Dec-2014 1:54pm EST

 
Temperature: 41°F , 5°C
Dew Point: 21°F , -6°C
Humidity: 45%
Barometer: 30.31 inHg , 1026.4 hPa
2014/12/21 18:54 KDMH 211854Z AUTO 05/M06 A3031 RMK AO1 SLP265 T00501056
 
KBWI - Balto/Wash Intl, Maryland, USA
Distance from station: SSW 20mi, 33km
Updated: Sun, 21-Dec-2014 1:54pm EST
Partly cloudy
Partly cloudy
 Wind from WSW
Wind: WSW 7 mph , 11 km/h
Temperature: 39°F , 4°C
Wind Chill: 34°F , 1°C
Dew Point: 23°F , -5°C
Humidity: 52%
Barometer: 30.29 inHg , 1025.7 hPa
Clouds: Partly cloudy
Visibility: 10 miles , 16 km
Cloud details: Few Clouds 6500 ft
Partly cloudy 25000 ft
2014/12/21 18:54 KBWI 211854Z 24006KT 10SM FEW065 SCT250 04/M05 A3029 RMK AO2 SLP258 T00441050
KDMW - Carroll Cnty, Maryland, USA
Distance from station: WNW 30mi, 48km
Updated: Sun, 21-Dec-2014 2:00pm EST
Clear
Clear
 Wind from calm
Wind: Calm
Temperature: 36°F , 2°C
Dew Point: 23°F , -5°C
Humidity: 60%
Barometer: 30.27 inHg , 1025.1 hPa
Clouds: Clear
Visibility: 10 miles , 16 km
2014/12/21 19:00 KDMW 211900Z AUTO 00000KT 10SM CLR 02/M05 A3027 RMK AO2
 
KNAK - Annapolis/Naval, Maryland, USA
Distance from station: S 30mi, 48km
Updated: Sun, 21-Dec-2014 1:54pm EST
Partly cloudy
Partly cloudy
 Wind from NW
Wind: NW 6 mph , 9 km/h
Temperature: 39°F , 4°C
Wind Chill: 35°F , 2°C
Dew Point: 25°F , -4°C
Humidity: 56%
Barometer: 30.30 inHg , 1026.1 hPa
Clouds: Partly cloudy
Visibility: 10 miles , 16 km
Cloud details: Partly cloudy 7000 ft
2014/12/21 18:54 KNAK 211854Z AUTO 32005KT 10SM SCT070 04/M04 A3030 RMK AO2 SLP263 T00391044 $
KW29 - Stevensville, Maryland, USA
Distance from station: SSE 31mi, 50km
Updated: Sun, 21-Dec-2014 1:58pm EST

 Wind from NW
Wind: NW 3 mph , 6 km/h
Temperature: 37°F , 3°C
Dew Point: 23°F , -5°C
Humidity: 56%
Barometer: 30.31 inHg , 1026.4 hPa
Visibility: 10 miles , 16 km
2014/12/21 18:58 KW29 211858Z AUTO 32003KT 10SM 03/M05 A3031 RMK AO1
 
KCGS - College Park, Maryland, USA
Distance from station: SW 38mi, 61km
Updated: Sun, 21-Dec-2014 1:55pm EST
Mostly cloudy
Mostly cloudy
 Wind from NNW
Wind: NNW 3 mph , 6 km/h
Temperature: 41°F , 5°C
Dew Point: 27°F , -3°C
Humidity: 57%
Barometer: 30.30 inHg , 1026.1 hPa
Clouds: Mostly cloudy
Visibility: 10 miles , 16 km
Cloud details: Mostly cloudy 7000 ft
2014/12/21 18:55 KCGS 211855Z AUTO 33003KT 10SM BKN070 05/M03 A3030 RMK AO1
KGAI - Gaithersburg, Maryland, USA
Distance from station: WSW 40mi, 65km
Updated: Sun, 21-Dec-2014 2:15pm EST
Clear
Clear
 Wind from NNW
Wind: NNW 5 mph , 7 km/h
Temperature: 37°F , 3°C
Wind Chill: 33°F , 1°C
Dew Point: 21°F , -6°C
Humidity: 52%
Barometer: 30.31 inHg , 1026.4 hPa
Clouds: Clear
Visibility: 10 miles , 16 km
2014/12/21 19:15 KGAI 211915Z 33004KT 10SM CLR 03/M06 A3031 RMK AO1
 
KTHV - York, Pennsylvania, USA
Distance from station: NNW 40mi, 65km
Updated: Sun, 21-Dec-2014 1:53pm EST
Clear
Clear
 Wind from N
Wind: N 6 mph , 9 km/h
Temperature: 37°F , 3°C
Wind Chill: 32°F , 0°C
Dew Point: 21°F , -6°C
Humidity: 52%
Barometer: 30.29 inHg , 1025.7 hPa
Clouds: Clear
Visibility: 10 miles , 16 km
2014/12/21 18:53 KTHV 211853Z AUTO 01005KT 10SM CLR 03/M06 A3029 RMK AO2 SLP265 T00281061
KFDK - Frederick, Maryland, USA
Distance from station: W 47mi, 75km
Updated: Sun, 21-Dec-2014 1:45pm EST
Clear
Clear
 Wind from SSW
Wind: SSW 6 mph , 9 km/h
Temperature: 43°F , 6°C
Wind Chill: 39°F , 4°C
Dew Point: 21°F , -6°C
Humidity: 42%
Barometer: 30.33 inHg , 1027.1 hPa
Clouds: Clear
Visibility: 10 miles , 16 km
2014/12/21 18:45 KFDK 211845Z 20005KT 10SM SKC 06/M06 A3033
 
KESN - Easton/Newnam, Maryland, USA
Distance from station: SSE 48mi, 78km
Updated: Sun, 21-Dec-2014 1:55pm EST
Partly cloudy
Partly cloudy
 Wind from NNW
Wind: NNW 3 mph , 6 km/h
Temperature: 41°F , 5°C
Dew Point: 27°F , -3°C
Humidity: 57%
Barometer: 30.34 inHg , 1027.4 hPa
Clouds: Partly cloudy
Visibility: 10 miles , 16 km
Cloud details: Partly cloudy 7000 ft
2014/12/21 18:55 KESN 211855Z 33003KT 10SM SCT070 05/M03 A3034
KDCA - Washington/Natl, Washington D.c., USA
Distance from station: SW 49mi, 79km
Updated: Sun, 21-Dec-2014 1:52pm EST
Mostly cloudy
Mostly cloudy
 Wind from NNE
Wind: NNE 8 mph , 13 km/h
Temperature: 45°F , 7°C
Wind Chill: 41°F , 5°C
Dew Point: 25°F , -4°C
Humidity: 46%
Barometer: 30.31 inHg , 1026.4 hPa
Clouds: Mostly cloudy
Visibility: 10 miles , 16 km
Cloud details: Mostly cloudy 6500 ft
2014/12/21 18:52 KDCA 211852Z 02007KT 10SM BKN065 07/M04 A3031 RMK AO2 SLP262 T00671039
 
KLNS - Lancaster, Pennsylvania, USA
Distance from station: N 49mi, 79km
Updated: Sun, 21-Dec-2014 1:53pm EST
Overcast
Overcast
 Wind from NW
Wind: NW 5 mph , 7 km/h
Temperature: 34°F , 1°C
Wind Chill: 29°F , -2°C
Dew Point: 21°F , -6°C
Humidity: 60%
Barometer: 30.30 inHg , 1026.1 hPa
Clouds: Overcast
Visibility: 10 miles , 16 km
Cloud details: Overcast 2700 ft
2014/12/21 18:53 KLNS 211853Z 31004KT 10SM OVC027 01/M06 A3030 RMK AO2 SLP264 T00061056
KILG - Wilmington, Delaware, USA
Distance from station: ENE 50mi, 81km
Updated: Sun, 21-Dec-2014 1:51pm EST
Clear
Clear
 Wind from NNW
Wind: NNW 8 mph , 13 km/h
Temperature: 41°F , 5°C
Wind Chill: 36°F , 2°C
Dew Point: 21°F , -6°C
Humidity: 45%
Barometer: 30.30 inHg , 1026.1 hPa
Clouds: Clear
Visibility: 8 miles , 13 km
2014/12/21 18:51 KILG 211851Z 34007KT 8SM CLR 05/M06 A3030 RMK AO2 SLP263 T00501056